createdAt,value
2022-11-29T00:01:38.568Z,70.72
2022-11-29T00:04:05.721Z,70.54
2022-11-29T00:06:35.215Z,71.17
2022-11-29T00:09:06.563Z,70.66
2022-11-29T00:11:55.193Z,70.53
2022-11-29T00:14:23.248Z,70.52
2022-11-29T00:16:53.274Z,70.71
2022-11-29T00:19:20.675Z,70.24
2022-11-29T00:21:48.019Z,70.53
2022-11-29T00:24:15.849Z,70.87
2022-11-29T00:26:43.055Z,70.42
2022-11-29T00:29:12.277Z,70.67
2022-11-29T00:31:40.179Z,70.22
2022-11-29T00:34:08.114Z,70.23
2022-11-29T00:36:35.670Z,70.52
2022-11-29T00:39:04.747Z,70.87
2022-11-29T00:41:32.838Z,70.47
2022-11-29T00:43:59.927Z,70.91
2022-11-29T00:46:27.034Z,70.73
2022-11-29T00:48:54.237Z,70.68
2022-11-29T00:51:21.954Z,70.77
2022-11-29T00:53:48.940Z,70.99
2022-11-29T00:56:16.387Z,70.77
2022-11-29T00:58:46.097Z,70.54
2022-11-29T01:01:13.227Z,70.70
2022-11-29T01:03:40.578Z,70.61
2022-11-29T01:06:13.997Z,70.91
2022-11-29T01:08:41.839Z,70.59
2022-11-29T01:11:20.523Z,70.63
2022-11-29T01:13:49.077Z,70.97
2022-11-29T01:16:18.277Z,70.72
2022-11-29T01:18:45.533Z,70.82
2022-11-29T01:21:18.534Z,70.89
2022-11-29T01:23:46.706Z,70.93
2022-11-29T01:26:16.219Z,70.83
2022-11-29T01:28:47.352Z,70.55
2022-11-29T01:31:21.019Z,70.86
2022-11-29T01:33:48.140Z,70.89
2022-11-29T01:36:15.648Z,70.71
2022-11-29T01:38:43.183Z,70.76
2022-11-29T01:41:18.704Z,70.62
2022-11-29T01:44:16.305Z,70.57
2022-11-29T01:46:46.226Z,70.69
2022-11-29T01:49:17.772Z,70.39
2022-11-29T01:51:50.514Z,71.30
2022-11-29T01:54:18.399Z,70.70
2022-11-29T01:56:47.142Z,70.75
2022-11-29T01:59:17.423Z,70.49
2022-11-29T02:01:44.447Z,70.56
2022-11-29T02:04:12.283Z,70.69
2022-11-29T02:06:41.069Z,70.86
2022-11-29T02:09:20.591Z,70.57
2022-11-29T02:12:06.988Z,70.92
2022-11-29T02:14:51.848Z,70.68
2022-11-29T02:17:49.813Z,70.27
2022-11-29T02:20:16.751Z,70.80
2022-11-29T02:23:28.591Z,70.59
2022-11-29T02:26:22.881Z,70.08
2022-11-29T02:29:17.670Z,70.18
2022-11-29T02:32:02.959Z,70.19
2022-11-29T02:34:29.999Z,70.42
2022-11-29T02:37:18.552Z,70.41
2022-11-29T02:40:15.043Z,70.65
2022-11-29T02:42:56.276Z,70.31
2022-11-29T02:45:41.451Z,70.79
2022-11-29T02:48:29.832Z,70.66
2022-11-29T02:51:11.801Z,70.43
2022-11-29T02:53:57.283Z,70.78
2022-11-29T02:57:01.395Z,70.62
2022-11-29T02:59:43.248Z,70.64
2022-11-29T03:02:25.504Z,70.82
2022-11-29T03:05:20.080Z,70.54
2022-11-29T03:08:24.911Z,70.32
2022-11-29T03:11:18.804Z,70.69
2022-11-29T03:13:48.735Z,70.65
2022-11-29T03:16:44.593Z,70.36
2022-11-29T03:19:17.543Z,70.36
2022-11-29T03:21:57.093Z,70.51
2022-11-29T03:24:36.013Z,70.50
2022-11-29T03:27:09.526Z,69.92
2022-11-29T03:29:43.559Z,70.05
2022-11-29T03:32:20.738Z,70.38
2022-11-29T03:34:57.159Z,69.59
2022-11-29T03:37:46.437Z,69.93
2022-11-29T03:40:19.020Z,70.03
2022-11-29T03:43:00.973Z,70.23
2022-11-29T03:45:45.704Z,69.84
2022-11-29T03:48:33.250Z,70.03
2022-11-29T03:51:03.301Z,70.26
2022-11-29T03:54:00.198Z,70.20
2022-11-29T03:56:34.083Z,69.71
2022-11-29T03:59:10.249Z,70.15
2022-11-29T04:02:04.070Z,70.26
2022-11-29T04:04:43.430Z,70.05
2022-11-29T04:07:48.234Z,69.47
2022-11-29T04:10:17.726Z,69.46
2022-11-29T04:13:19.434Z,70.01
2022-11-29T04:15:46.475Z,70.12
2022-11-29T04:18:35.064Z,69.73
2022-11-29T04:21:10.931Z,69.95
2022-11-29T04:23:59.049Z,70.37
2022-11-29T04:27:24.965Z,69.96
2022-11-29T04:30:10.891Z,70.25
2022-11-29T04:33:15.531Z,70.12
2022-11-29T04:35:52.924Z,70.02
2022-11-29T04:38:48.004Z,70.06
2022-11-29T04:41:46.529Z,69.76
2022-11-29T04:44:22.616Z,70.38
2022-11-29T04:47:26.642Z,70.05
2022-11-29T04:50:05.652Z,69.96
2022-11-29T04:52:59.882Z,70.54
2022-11-29T04:55:35.786Z,69.75
2022-11-29T04:58:35.924Z,69.92
2022-11-29T05:01:12.565Z,70.07
2022-11-29T05:03:53.851Z,69.96
2022-11-29T05:06:45.546Z,70.04
2022-11-29T05:09:28.049Z,69.66
2022-11-29T05:12:09.119Z,69.66
2022-11-29T05:15:05.267Z,69.84
2022-11-29T05:18:07.506Z,69.53
2022-11-29T05:21:00.843Z,69.68
2022-11-29T05:23:47.165Z,69.59
2022-11-29T05:26:26.369Z,69.61
2022-11-29T05:28:59.447Z,69.42
2022-11-29T05:31:26.586Z,70.00
2022-11-29T05:34:12.626Z,69.63
2022-11-29T05:37:43.317Z,68.99
2022-11-29T05:40:41.560Z,68.97
2022-11-29T05:43:41.918Z,68.84
2022-11-29T05:46:34.344Z,69.37
2022-11-29T05:49:27.627Z,69.16
2022-11-29T05:52:12.950Z,68.50
2022-11-29T05:54:53.375Z,68.70
2022-11-29T05:57:37.354Z,68.83
2022-11-29T06:00:05.968Z,68.36
2022-11-29T06:03:07.603Z,68.58
2022-11-29T06:05:40.426Z,69.35
2022-11-29T06:08:46.291Z,69.04
2022-11-29T06:11:24.284Z,69.33
2022-11-29T06:14:14.659Z,68.05
2022-11-29T06:16:51.367Z,68.68
2022-11-29T06:19:37.945Z,68.27
2022-11-29T06:22:08.229Z,69.13
2022-11-29T06:24:45.644Z,68.91
2022-11-29T06:27:48.368Z,68.27
2022-11-29T06:30:20.869Z,68.39
2022-11-29T06:32:54.514Z,68.72
2022-11-29T06:36:09.410Z,67.75
2022-11-29T06:38:36.364Z,67.68
2022-11-29T06:41:03.596Z,68.77
2022-11-29T06:43:31.506Z,68.34
2022-11-29T06:46:14.327Z,68.09
2022-11-29T06:49:26.808Z,68.11
2022-11-29T06:52:02.990Z,68.50
2022-11-29T06:54:55.759Z,68.77
2022-11-29T06:57:49.037Z,68.62
2022-11-29T07:00:22.671Z,68.55
2022-11-29T07:03:23.680Z,68.22
2022-11-29T07:05:51.335Z,68.71
2022-11-29T07:08:24.090Z,68.38
2022-11-29T07:10:54.198Z,68.39
2022-11-29T07:13:22.732Z,68.72
2022-11-29T07:16:12.697Z,68.66
2022-11-29T07:19:03.981Z,68.21
2022-11-29T07:21:46.274Z,68.21
2022-11-29T07:24:26.426Z,67.94
2022-11-29T07:27:11.999Z,68.46
2022-11-29T07:29:46.032Z,67.52
2022-11-29T07:32:39.304Z,67.98
2022-11-29T07:35:16.548Z,68.43
2022-11-29T07:38:01.943Z,67.29
2022-11-29T07:40:45.907Z,67.79
2022-11-29T07:43:44.820Z,67.68
2022-11-29T07:46:12.268Z,68.41
2022-11-29T07:48:40.599Z,67.98
2022-11-29T07:51:07.840Z,68.12
2022-11-29T07:53:41.348Z,67.89
2022-11-29T07:56:16.525Z,68.24
2022-11-29T07:58:44.023Z,67.95
2022-11-29T08:01:11.542Z,68.15
2022-11-29T08:03:39.000Z,67.58
2022-11-29T08:06:06.484Z,67.28
2022-11-29T08:08:36.652Z,67.62
2022-11-29T08:11:11.850Z,67.48
2022-11-29T08:13:38.884Z,67.52
2022-11-29T08:16:06.115Z,67.17
2022-11-29T08:18:39.628Z,67.01
2022-11-29T08:21:09.335Z,67.03
2022-11-29T08:23:36.590Z,66.67
2022-11-29T08:26:04.208Z,66.84
2022-11-29T08:28:31.898Z,66.80
2022-11-29T08:31:07.363Z,65.97
2022-11-29T08:33:44.821Z,66.43
2022-11-29T08:36:18.469Z,66.57
2022-11-29T08:38:48.424Z,65.69
2022-11-29T08:41:17.432Z,66.54
2022-11-29T08:43:45.001Z,66.30
2022-11-29T08:46:18.309Z,66.43
2022-11-29T08:48:47.239Z,66.15
2022-11-29T08:51:14.545Z,66.10
2022-11-29T08:53:41.889Z,65.99
2022-11-29T08:59:06.120Z,65.70
2022-11-29T09:01:33.589Z,66.24
2022-11-29T09:04:02.552Z,65.94
2022-11-29T09:06:38.131Z,65.48
2022-11-29T09:09:06.338Z,65.93
2022-11-29T09:11:36.104Z,65.82
2022-11-29T09:14:06.301Z,65.34
2022-11-29T09:16:36.436Z,65.35
2022-11-29T09:19:05.558Z,65.48
2022-11-29T09:21:36.774Z,65.49
2022-11-29T09:24:07.368Z,65.06
2022-11-29T09:26:38.359Z,65.56
2022-11-29T09:29:07.011Z,65.65
2022-11-29T09:31:38.224Z,65.74
2022-11-29T09:34:07.861Z,64.86
2022-11-29T09:36:35.430Z,65.05
2022-11-29T09:39:03.060Z,65.12
2022-11-29T09:42:03.965Z,64.19
2022-11-29T09:45:09.723Z,63.96
2022-11-29T09:47:52.026Z,65.11
2022-11-29T09:50:26.671Z,65.08
2022-11-29T09:53:04.759Z,64.05
2022-11-29T09:55:48.617Z,64.51
2022-11-29T09:58:23.015Z,64.00
2022-11-29T10:01:00.297Z,63.83
2022-11-29T10:03:38.329Z,63.98
2022-11-29T10:06:11.945Z,64.13
2022-11-29T10:08:54.195Z,63.43
2022-11-29T10:11:32.019Z,63.73
2022-11-29T10:14:35.697Z,63.90
2022-11-29T10:17:34.544Z,62.87
2022-11-29T10:20:10.382Z,63.68
2022-11-29T10:23:14.206Z,62.88
2022-11-29T10:25:49.456Z,63.54
2022-11-29T10:28:29.399Z,64.00
2022-11-29T10:31:10.973Z,63.62
2022-11-29T10:33:41.635Z,63.80
2022-11-29T10:36:34.182Z,62.68
2022-11-29T10:39:10.045Z,64.03
2022-11-29T10:41:42.695Z,64.09
2022-11-29T10:44:14.858Z,63.92
2022-11-29T10:46:42.202Z,63.95
2022-11-29T10:49:23.888Z,63.11
2022-11-29T10:51:56.895Z,64.12
2022-11-29T10:54:38.677Z,62.84
2022-11-29T10:57:14.723Z,63.68
2022-11-29T11:00:04.745Z,63.06
2022-11-29T11:02:34.521Z,64.11
2022-11-29T11:05:03.131Z,63.74
2022-11-29T11:07:38.378Z,63.62
2022-11-29T11:10:26.810Z,62.97
2022-11-29T11:13:20.368Z,62.72
2022-11-29T11:15:47.416Z,63.42
2022-11-29T11:18:23.482Z,63.18
2022-11-29T11:21:00.195Z,63.25
2022-11-29T11:23:31.856Z,63.28
2022-11-29T11:26:03.198Z,63.51
2022-11-29T11:28:30.412Z,63.20
2022-11-29T11:31:05.775Z,62.76
2022-11-29T11:33:35.001Z,63.40
2022-11-29T11:36:02.315Z,63.30
2022-11-29T11:38:29.827Z,63.22
2022-11-29T11:41:17.406Z,62.45
2022-11-29T11:44:48.851Z,62.23
2022-11-29T11:47:29.480Z,62.64
2022-11-29T11:50:02.771Z,62.62
2022-11-29T11:52:53.491Z,62.89
2022-11-29T11:55:32.673Z,62.75
2022-11-29T11:58:13.640Z,62.66
2022-11-29T12:01:04.014Z,63.51
2022-11-29T12:03:39.743Z,62.93
2022-11-29T12:06:39.510Z,62.25
2022-11-29T12:09:10.031Z,62.95
2022-11-29T12:12:10.229Z,62.96
2022-11-29T12:14:42.297Z,63.44
2022-11-29T12:17:19.914Z,63.39
2022-11-29T12:20:07.602Z,63.20
2022-11-29T12:22:49.657Z,63.25
2022-11-29T12:25:27.363Z,63.27
2022-11-29T12:27:54.919Z,63.93
2022-11-29T12:30:22.731Z,63.54
2022-11-29T12:33:09.129Z,64.03
2022-11-29T12:35:58.710Z,63.56
2022-11-29T12:38:38.773Z,63.59
2022-11-29T12:41:39.546Z,63.49
2022-11-29T12:44:22.962Z,63.83
2022-11-29T12:47:35.317Z,63.63
2022-11-29T12:50:20.806Z,63.83
2022-11-29T12:52:55.798Z,64.16
2022-11-29T12:55:48.286Z,63.92
2022-11-29T12:58:46.075Z,63.95
2022-11-29T13:01:16.287Z,64.12
2022-11-29T13:04:08.159Z,63.77
2022-11-29T13:07:06.198Z,64.31
2022-11-29T13:10:18.236Z,64.28
2022-11-29T13:12:57.599Z,64.30
2022-11-29T13:15:43.103Z,64.59
2022-11-29T13:18:32.777Z,65.03
2022-11-29T13:21:25.357Z,64.76
2022-11-29T13:24:09.884Z,65.32
2022-11-29T13:26:40.949Z,65.05
2022-11-29T13:29:18.371Z,65.17
2022-11-29T13:31:50.507Z,65.34
2022-11-29T13:34:36.649Z,65.56
2022-11-29T13:37:25.108Z,65.64
2022-11-29T13:40:10.454Z,65.31
2022-11-29T13:42:47.458Z,65.38
2022-11-29T13:45:39.601Z,65.48
2022-11-29T13:48:37.316Z,65.58
2022-11-29T13:51:35.587Z,65.71
2022-11-29T13:54:26.521Z,65.82
2022-11-29T13:57:07.187Z,65.77
2022-11-29T13:59:47.271Z,65.58
2022-11-29T14:02:30.524Z,65.76
2022-11-29T14:04:57.899Z,65.42
2022-11-29T14:07:26.763Z,65.83
2022-11-29T14:10:29.071Z,65.76
2022-11-29T14:12:57.650Z,65.86
2022-11-29T14:15:29.061Z,65.95
2022-11-29T14:18:07.931Z,65.99
2022-11-29T14:21:00.413Z,65.87
2022-11-29T14:23:43.786Z,65.99
2022-11-29T14:26:11.041Z,66.01
2022-11-29T14:28:40.698Z,65.93
2022-11-29T14:31:09.938Z,65.93
2022-11-29T14:33:40.229Z,66.36
2022-11-29T14:36:31.753Z,66.01
2022-11-29T14:39:29.726Z,66.00
2022-11-29T14:42:19.057Z,65.84
2022-11-29T14:44:52.330Z,65.71
2022-11-29T14:47:49.182Z,65.82
2022-11-29T14:50:32.246Z,66.10
2022-11-29T14:52:59.836Z,65.94
2022-11-29T14:55:26.814Z,66.52
2022-11-29T14:58:06.418Z,66.50
2022-11-29T15:00:40.911Z,66.49
2022-11-29T15:03:10.869Z,66.38
2022-11-29T15:05:58.014Z,66.23
2022-11-29T15:08:54.413Z,66.02
2022-11-29T15:11:35.573Z,66.48
2022-11-29T15:14:06.724Z,66.48
2022-11-29T15:16:56.972Z,66.48
2022-11-29T15:19:42.112Z,66.63
2022-11-29T15:22:20.046Z,66.50
2022-11-29T15:25:03.026Z,66.62
2022-11-29T15:27:37.381Z,66.55
2022-11-29T15:30:32.482Z,66.36
2022-11-29T15:33:02.007Z,66.55
2022-11-29T15:35:30.211Z,66.79
2022-11-29T15:37:57.726Z,66.79
2022-11-29T15:40:39.846Z,66.41
2022-11-29T15:43:38.055Z,66.74
2022-11-29T15:46:05.365Z,66.97
2022-11-29T15:48:32.981Z,66.66
2022-11-29T15:51:03.306Z,66.93
2022-11-29T15:53:42.765Z,66.79
2022-11-29T15:56:25.584Z,66.48
2022-11-29T15:59:01.278Z,66.81
2022-11-29T16:01:30.327Z,66.65
2022-11-29T16:03:59.530Z,66.84
2022-11-29T16:06:42.775Z,67.15
2022-11-29T16:09:16.327Z,67.08
2022-11-29T16:11:44.205Z,66.54
2022-11-29T16:14:27.029Z,67.14
2022-11-29T16:16:57.145Z,66.77
2022-11-29T16:19:38.158Z,67.15
2022-11-29T16:22:24.069Z,67.37
2022-11-29T16:24:54.723Z,66.99
2022-11-29T16:27:23.031Z,66.87
2022-11-29T16:29:57.130Z,66.90
2022-11-29T16:32:34.732Z,66.36
2022-11-29T16:35:16.806Z,66.79
2022-11-29T16:37:46.762Z,66.79
2022-11-29T16:40:26.918Z,67.38
2022-11-29T16:43:09.532Z,67.45
2022-11-29T16:45:41.607Z,67.70
2022-11-29T16:48:27.110Z,67.43
2022-11-29T16:51:17.203Z,67.52
2022-11-29T16:53:49.893Z,67.79
2022-11-29T16:56:19.460Z,67.12
2022-11-29T16:59:25.826Z,67.75
2022-11-29T17:01:37.608Z,67.20
2022-11-29T17:04:09.015Z,67.74
2022-11-29T17:06:37.405Z,67.60
2022-11-29T17:12:22.613Z,67.27
2022-11-29T17:14:50.613Z,67.00
2022-11-29T17:17:19.675Z,68.17
2022-11-29T17:19:50.474Z,67.34
2022-11-29T17:22:17.662Z,67.42
2022-11-29T17:25:10.862Z,67.71
2022-11-29T17:28:04.891Z,67.87
2022-11-29T17:30:33.504Z,68.06
2022-11-29T17:33:00.515Z,67.84
2022-11-29T17:35:39.010Z,68.05
2022-11-29T17:38:10.973Z,67.97
2022-11-29T17:43:38.459Z,68.43
2022-11-29T17:46:16.476Z,67.85
2022-11-29T17:48:48.824Z,67.83
2022-11-29T17:51:50.033Z,67.61
2022-11-29T17:54:10.600Z,67.53
2022-11-29T17:56:38.536Z,67.67
2022-11-29T17:59:07.009Z,67.72
2022-11-29T18:02:02.234Z,67.59
2022-11-29T18:04:31.923Z,67.60
2022-11-29T18:13:08.307Z,68.08
2022-11-29T18:16:13.070Z,67.43
2022-11-29T18:18:44.316Z,68.44
2022-11-29T18:21:15.592Z,68.52
2022-11-29T18:23:43.444Z,67.57
2022-11-29T18:26:20.209Z,67.93
2022-11-29T18:32:03.982Z,68.05
2022-11-29T18:34:31.026Z,67.80
2022-11-29T18:39:57.280Z,67.67
2022-11-29T18:42:51.117Z,68.20
2022-11-29T18:45:44.246Z,68.02
2022-11-29T18:48:12.072Z,67.96
2022-11-29T18:50:39.933Z,68.19
2022-11-29T18:53:07.040Z,67.90
2022-11-29T18:55:38.099Z,67.99
2022-11-29T18:58:31.054Z,67.89
2022-11-29T19:01:48.954Z,68.47
2022-11-29T19:04:33.118Z,68.23
2022-11-29T19:07:01.006Z,67.79
2022-11-29T19:09:30.335Z,67.77
2022-11-29T19:12:00.049Z,68.05
2022-11-29T19:14:32.608Z,68.13
2022-11-29T19:17:00.274Z,68.33
2022-11-29T19:19:52.594Z,68.22
2022-11-29T19:22:22.838Z,68.01
2022-11-29T19:25:17.006Z,68.06
2022-11-29T19:27:52.300Z,68.26
2022-11-29T19:30:44.734Z,68.51
2022-11-29T19:33:41.987Z,67.95
2022-11-29T19:36:23.637Z,68.35
2022-11-29T19:39:17.951Z,67.90
2022-11-29T19:41:50.030Z,68.15
2022-11-29T19:45:15.329Z,68.10
2022-11-29T19:47:35.295Z,68.10
2022-11-29T19:50:53.270Z,68.15
2022-11-29T19:53:27.944Z,67.96
2022-11-29T19:56:20.957Z,68.14
2022-11-29T19:59:13.284Z,67.88
2022-11-29T20:01:42.250Z,68.12
2022-11-29T20:04:13.234Z,68.26
2022-11-29T20:09:57.542Z,67.99
2022-11-29T20:12:24.870Z,67.99
2022-11-29T20:15:17.045Z,68.27
2022-11-29T20:17:44.120Z,68.39
2022-11-29T20:20:11.920Z,68.47
2022-11-29T20:22:39.741Z,68.30
2022-11-29T20:25:07.291Z,68.27
2022-11-29T20:27:34.523Z,68.07
2022-11-29T20:30:02.006Z,68.31
2022-11-29T20:32:31.931Z,67.99
2022-11-29T20:35:00.565Z,68.10
2022-11-29T20:37:37.442Z,68.54
2022-11-29T20:40:12.100Z,68.38
2022-11-29T20:42:53.867Z,68.69
2022-11-29T20:45:22.553Z,68.25
2022-11-29T20:47:56.697Z,68.12
2022-11-29T20:50:27.177Z,68.08
2022-11-29T20:53:14.648Z,68.47
2022-11-29T20:55:47.701Z,68.43
2022-11-29T20:58:16.300Z,68.20
2022-11-29T21:00:43.396Z,68.27
2022-11-29T21:03:36.221Z,68.50
2022-11-29T21:06:05.709Z,68.17
2022-11-29T21:08:33.620Z,68.46
2022-11-29T21:11:06.787Z,68.49
2022-11-29T21:13:35.550Z,68.06
2022-11-29T21:16:03.463Z,68.24
2022-11-29T21:18:31.630Z,68.36
2022-11-29T21:21:10.294Z,67.91
2022-11-29T21:24:09.549Z,67.86
2022-11-29T21:26:42.540Z,68.51
2022-11-29T21:29:17.079Z,67.94
2022-11-29T21:31:45.501Z,68.06
2022-11-29T21:34:12.617Z,67.84
2022-11-29T21:36:40.157Z,67.74
2022-11-29T21:39:08.817Z,68.01
2022-11-29T21:41:36.391Z,68.30
2022-11-29T21:44:07.724Z,68.10
2022-11-29T21:46:35.493Z,68.46
2022-11-29T21:49:02.519Z,68.31
2022-11-29T21:51:29.604Z,68.34
2022-11-29T21:53:56.907Z,68.00
2022-11-29T21:56:24.156Z,68.08
2022-11-29T21:58:51.099Z,68.40
2022-11-29T22:01:20.409Z,68.35
2022-11-29T22:03:48.011Z,68.38
2022-11-29T22:06:20.587Z,68.56
2022-11-29T22:08:48.502Z,68.17
2022-11-29T22:11:31.261Z,68.09
2022-11-29T22:14:15.885Z,68.63
2022-11-29T22:16:46.724Z,68.21
2022-11-29T22:19:16.451Z,67.95
2022-11-29T22:21:46.160Z,68.34
2022-11-29T22:24:14.857Z,68.14
2022-11-29T22:26:43.855Z,67.91
2022-11-29T22:29:14.155Z,68.10
2022-11-29T22:31:46.503Z,68.35
2022-11-29T22:34:13.836Z,68.00
2022-11-29T22:36:41.075Z,67.89
2022-11-29T22:39:09.330Z,68.12
2022-11-29T22:41:37.953Z,68.23
2022-11-29T22:44:06.050Z,68.04
2022-11-29T22:46:35.537Z,67.84
2022-11-29T22:49:03.266Z,67.98
2022-11-29T22:51:36.054Z,68.61
2022-11-29T22:54:10.588Z,68.05
2022-11-29T22:56:40.646Z,68.12
2022-11-29T22:59:08.239Z,68.35
2022-11-29T23:01:37.741Z,67.96
2022-11-29T23:04:07.329Z,68.07
2022-11-29T23:06:35.691Z,67.84
2022-11-29T23:09:10.811Z,68.22
2022-11-29T23:11:38.768Z,68.12
2022-11-29T23:14:05.761Z,68.22
2022-11-29T23:16:33.629Z,68.23
2022-11-29T23:19:02.822Z,68.04
2022-11-29T23:21:32.192Z,67.97
2022-11-29T23:24:01.077Z,68.58
2022-11-29T23:26:36.506Z,68.13
2022-11-29T23:29:05.416Z,68.77
2022-11-29T23:31:33.018Z,68.12
2022-11-29T23:34:00.510Z,68.25
2022-11-29T23:36:27.529Z,68.43
2022-11-29T23:38:54.589Z,68.48
2022-11-29T23:41:21.711Z,68.13
2022-11-29T23:43:48.638Z,68.30
2022-11-29T23:46:18.603Z,68.09
2022-11-29T23:48:46.079Z,68.38
2022-11-29T23:51:14.009Z,68.00
2022-11-29T23:53:42.065Z,68.23
2022-11-29T23:56:13.416Z,68.54
2022-11-29T23:58:40.994Z,68.48
